Time;durP1;ratioP1;P1;durP2;ratioP2;P2;SDS_P1;SDS_P2;PMS_P1;PMS_P2;Temp;Humidity;BMP_temperature;BMP_pressure;BME280_temperature;BME280_humidity;BME280_pressure;Samples;Min_cycle;Max_cycle;Signal;HPM_P1;HPM_P2
2021/09/11 00:02:14;;;;;;;;;;;;;;;13.93;99.47;100999.22;6014250;23;20611;-84
2021/09/11 00:04:45;;;;;;;;;;;;;;;13.94;99.61;101003.59;5993629;23;19969;-85
2021/09/11 00:07:11;;;;;;;;;;;;;;;13.93;99.60;101007.34;5997026;23;19944;-83
2021/09/11 00:09:36;;;;;;;;;;;;;;;13.89;99.51;101005.22;5992167;23;19912;-83
2021/09/11 00:12:02;;;;;;;;;;;;;;;13.88;99.68;101001.66;6016307;23;19906;-85
2021/09/11 00:14:27;;;;;;;;;;;;;;;13.88;99.70;101008.94;5993625;23;20000;-84
2021/09/11 00:16:53;;;;;;;;;;;;;;;13.88;99.85;101009.78;5990169;23;20368;-85
2021/09/11 00:19:18;;;;;;;;;;;;;;;13.88;99.59;101009.78;5993667;23;19929;-84
2021/09/11 00:21:44;;;;;;;;;;;;;;;13.88;99.80;101012.47;6017171;23;19921;-84
2021/09/11 00:24:09;;;;;;;;;;;;;;;13.89;99.75;101016.03;5993781;23;19916;-84
2021/09/11 00:26:34;;;;;;;;;;;;;;;13.88;99.62;101015.19;6016595;23;19905;-85
2021/09/11 00:29:03;;;;;;;;;;;;;;;13.87;99.74;101020.81;5995107;23;19913;-85
2021/09/11 00:31:28;;;;;;;;;;;;;;;13.85;99.71;101015.56;5994058;23;19906;-85
2021/09/11 00:33:54;;;;;;;;;;;;;;;13.85;99.81;101013.72;5992593;23;19913;-84
2021/09/11 00:36:19;;;;;;;;;;;;;;;13.85;99.82;101011.00;6038160;23;19910;-87
2021/09/11 00:38:45;;;;;;;;;;;;;;;13.83;99.74;101010.34;5990564;23;19912;-86
2021/09/11 00:41:10;;;;;;;;;;;;;;;13.83;99.73;101023.03;6015483;23;19916;-84
2021/09/11 00:43:40;;;;;;;;;;;;;;;13.81;99.79;101019.66;5990309;23;19937;-86
2021/09/11 00:46:05;;;;;;;;;;;;;;;13.80;99.73;101023.41;6014899;23;19905;-86
2021/09/11 00:48:31;;;;;;;;;;;;;;;13.80;99.72;101024.25;6016104;23;19963;-86
2021/09/11 00:50:56;;;;;;;;;;;;;;;13.79;99.91;101027.16;6014894;23;19978;-85
2021/09/11 00:53:22;;;;;;;;;;;;;;;13.76;99.89;101019.41;5991719;23;19988;-86
2021/09/11 00:55:47;;;;;;;;;;;;;;;13.75;100.00;101025.84;6015878;23;20346;-86
2021/09/11 00:58:13;;;;;;;;;;;;;;;13.73;99.95;101017.09;5992521;23;19910;-86
2021/09/11 01:00:38;;;;;;;;;;;;;;;13.71;100.00;101019.16;6016328;23;20567;-86
2021/09/11 01:03:03;;;;;;;;;;;;;;;13.71;100.00;101014.59;5992809;23;19915;-85
2021/09/11 01:05:29;;;;;;;;;;;;;;;13.72;100.00;101015.44;6016347;23;19925;-86
2021/09/11 01:07:54;;;;;;;;;;;;;;;13.72;100.00;101018.13;5989987;23;20320;-85
2021/09/11 01:10:20;;;;;;;;;;;;;;;13.72;100.00;101018.97;5991315;23;19910;-86
2021/09/11 01:12:47;;;;;;;;;;;;;;;13.73;100.00;101015.22;6016374;23;19906;-86
2021/09/11 01:15:12;;;;;;;;;;;;;;;13.74;100.00;101016.06;5993124;23;20508;-86
2021/09/11 01:17:38;;;;;;;;;;;;;;;13.76;100.00;101011.28;6016794;23;20455;-86
2021/09/11 01:20:04;;;;;;;;;;;;;;;13.78;100.00;101009.25;6040133;23;20327;-84
2021/09/11 01:22:30;;;;;;;;;;;;;;;13.80;100.00;101009.91;6019065;23;20001;-84
2021/09/11 01:25:05;;;;;;;;;;;;;;;13.81;100.00;101015.13;5992575;23;19938;-85
2021/09/11 01:27:31;;;;;;;;;;;;;;;13.81;100.00;101012.44;5995157;23;20315;-83
2021/09/11 01:29:58;;;;;;;;;;;;;;;13.81;100.00;101006.16;6017431;23;19905;-85
2021/09/11 01:32:23;;;;;;;;;;;;;;;13.82;100.00;101000.56;5994723;23;19906;-85
2021/09/11 01:34:49;;;;;;;;;;;;;;;13.78;99.87;100993.03;6018719;23;19913;-84
2021/09/11 01:37:15;;;;;;;;;;;;;;;13.85;99.89;100999.34;5992990;23;19944;-85
2021/09/11 01:39:40;;;;;;;;;;;;;;;13.89;99.89;100999.81;6017325;23;19980;-86
2021/09/11 01:42:06;;;;;;;;;;;;;;;13.90;99.76;100996.09;6019118;23;20356;-83
2021/09/11 01:44:31;;;;;;;;;;;;;;;13.90;99.74;100994.22;6018720;23;19989;-86
2021/09/11 01:46:57;;;;;;;;;;;;;;;13.90;99.66;100988.81;6017477;23;19916;-85
2021/09/11 01:49:22;;;;;;;;;;;;;;;13.92;99.56;100988.59;5993878;23;19909;-85
2021/09/11 01:51:48;;;;;;;;;;;;;;;13.89;99.44;100989.00;6017474;23;19913;-85
2021/09/11 01:54:13;;;;;;;;;;;;;;;13.90;99.30;100993.38;5996071;23;19915;-85
2021/09/11 01:56:39;;;;;;;;;;;;;;;13.90;99.37;100993.38;5992312;23;20635;-84
2021/09/11 01:59:04;;;;;;;;;;;;;;;13.91;99.20;100993.19;5991365;23;20244;-86
2021/09/11 02:01:30;;;;;;;;;;;;;;;13.93;99.00;100993.00;6016386;23;19913;-85
2021/09/11 02:03:55;;;;;;;;;;;;;;;13.91;99.20;100982.38;5993002;23;19910;-86
2021/09/11 02:06:21;;;;;;;;;;;;;;;13.90;98.84;100986.09;5990573;23;19976;-84
2021/09/11 02:08:47;;;;;;;;;;;;;;;13.86;99.03;100990.22;5995803;23;19905;-84
2021/09/11 02:11:12;;;;;;;;;;;;;;;13.86;99.13;100990.22;5993215;23;20475;-86
2021/09/11 02:13:38;;;;;;;;;;;;;;;13.85;99.16;100992.09;5995054;23;19976;-87
2021/09/11 02:16:04;;;;;;;;;;;;;;;13.87;99.21;100986.50;6017514;23;19913;-84
2021/09/11 02:18:30;;;;;;;;;;;;;;;13.87;98.80;100975.69;6017054;23;19909;-83
2021/09/11 02:20:56;;;;;;;;;;;;;;;13.90;98.89;100978.00;6015587;23;19921;-84
2021/09/11 02:23:21;;;;;;;;;;;;;;;13.91;98.96;100984.22;6016780;23;20330;-85
2021/09/11 02:25:47;;;;;;;;;;;;;;;13.94;98.92;100981.97;5994910;23;19976;-86
2021/09/11 02:28:12;;;;;;;;;;;;;;;13.96;98.73;100996.13;5993317;23;19906;-86
2021/09/11 02:30:38;;;;;;;;;;;;;;;13.96;98.75;100998.84;5995066;23;19905;-84
2021/09/11 02:33:03;;;;;;;;;;;;;;;13.94;98.63;101003.59;6016597;23;19913;-84
2021/09/11 02:35:29;;;;;;;;;;;;;;;13.91;98.73;101003.16;6017455;23;19905;-86
2021/09/11 02:37:54;;;;;;;;;;;;;;;13.89;98.82;100999.81;5991970;23;19910;-86
2021/09/11 02:40:20;;;;;;;;;;;;;;;13.87;99.23;100991.06;5990753;23;19920;-86
2021/09/11 02:42:45;;;;;;;;;;;;;;;13.85;99.09;100993.94;5990794;23;19905;-84
2021/09/11 02:45:11;;;;;;;;;;;;;;;13.85;99.21;100994.78;5990108;23;19929;-85
2021/09/11 02:47:36;;;;;;;;;;;;;;;13.85;99.38;100996.66;6012483;23;19909;-85
2021/09/11 02:50:02;;;;;;;;;;;;;;;13.84;99.46;101005.81;6013703;23;19920;-85
2021/09/11 02:52:28;;;;;;;;;;;;;;;13.81;99.34;101003.47;6015576;23;19909;-85
2021/09/11 02:54:54;;;;;;;;;;;;;;;13.81;99.49;100998.06;5991587;23;19920;-84
2021/09/11 02:57:19;;;;;;;;;;;;;;;13.81;99.34;101006.16;6016003;23;19961;-84
2021/09/11 02:59:45;;;;;;;;;;;;;;;13.79;99.40;101000.13;6015646;23;20267;-86
2021/09/11 03:02:10;;;;;;;;;;;;;;;13.77;99.31;100989.50;5991128;23;19973;-85
2021/09/11 03:04:36;;;;;;;;;;;;;;;13.74;99.17;100997.16;5990920;23;19988;-86
2021/09/11 03:07:01;;;;;;;;;;;;;;;13.73;99.11;100995.47;6014295;23;20388;-84
2021/09/11 03:09:26;;;;;;;;;;;;;;;13.69;99.07;100994.19;6039852;23;19910;-85
2021/09/11 03:11:52;;;;;;;;;;;;;;;13.61;99.17;100990.56;5991466;23;20647;-85
2021/09/11 03:14:17;;;;;;;;;;;;;;;13.65;99.06;100993.72;5991083;23;19944;-87
2021/09/11 03:16:43;;;;;;;;;;;;;;;13.64;99.22;100998.28;6014681;23;20296;-85
2021/09/11 03:19:08;;;;;;;;;;;;;;;13.64;99.11;100994.75;5993217;23;20651;-85
2021/09/11 03:21:34;;;;;;;;;;;;;;;13.63;98.99;100993.94;6017377;23;19910;-85
2021/09/11 03:23:59;;;;;;;;;;;;;;;13.63;98.91;100996.63;5991330;23;19988;-84
2021/09/11 03:26:25;;;;;;;;;;;;;;;13.60;98.99;100998.84;6015490;23;19905;-86
2021/09/11 03:28:50;;;;;;;;;;;;;;;13.56;98.74;101000.28;6015006;23;20324;-85
2021/09/11 03:31:16;;;;;;;;;;;;;;;13.53;98.90;101001.50;5992617;23;19917;-84
2021/09/11 03:33:41;;;;;;;;;;;;;;;13.53;99.10;101006.06;6016826;23;19968;-86
2021/09/11 03:36:07;;;;;;;;;;;;;;;13.51;99.14;101006.22;6016211;23;19909;-87
2021/09/11 03:38:32;;;;;;;;;;;;;;;13.51;99.45;101013.50;6016305;23;19941;-84
2021/09/11 03:40:58;;;;;;;;;;;;;;;13.51;99.50;101019.75;5992197;23;19919;-84
2021/09/11 03:43:23;;;;;;;;;;;;;;;13.53;99.63;101019.56;6017510;23;20441;-84
2021/09/11 03:45:49;;;;;;;;;;;;;;;13.53;99.49;101020.41;6016201;23;19937;-87
2021/09/11 03:48:14;;;;;;;;;;;;;;;13.54;99.56;101022.06;5994106;23;20240;-86
2021/09/11 03:50:40;;;;;;;;;;;;;;;13.56;99.62;101021.88;6014969;23;19935;-85
2021/09/11 03:53:05;;;;;;;;;;;;;;;13.57;99.62;101026.25;5992584;23;20353;-85
2021/09/11 03:55:30;;;;;;;;;;;;;;;13.55;99.39;101034.56;6017653;23;19913;-85
2021/09/11 03:57:56;;;;;;;;;;;;;;;13.55;99.73;101031.03;6016961;23;19912;-87
2021/09/11 04:00:21;;;;;;;;;;;;;;;13.53;99.78;101036.59;6017293;23;19906;-86
2021/09/11 04:02:47;;;;;;;;;;;;;;;13.53;99.81;101031.22;6016601;23;19906;-86
2021/09/11 04:05:12;;;;;;;;;;;;;;;13.52;99.76;101032.25;5992939;23;19915;-86
2021/09/11 04:07:38;;;;;;;;;;;;;;;13.53;99.73;101033.91;6014993;23;19909;-85
2021/09/11 04:10:03;;;;;;;;;;;;;;;13.55;100.00;101028.31;6016885;23;19906;-86
2021/09/11 04:12:29;;;;;;;;;;;;;;;13.57;100.00;101029.78;6017182;23;19909;-86
2021/09/11 04:14:54;;;;;;;;;;;;;;;13.56;99.99;101036.22;6017223;23;19910;-86
2021/09/11 04:17:20;;;;;;;;;;;;;;;13.54;100.00;101032.03;5994848;23;19960;-86
2021/09/11 04:19:45;;;;;;;;;;;;;;;13.54;100.00;101037.44;5993816;23;19941;-85
2021/09/11 04:22:11;;;;;;;;;;;;;;;13.53;100.00;101039.31;5993615;23;19941;-87
2021/09/11 04:24:36;;;;;;;;;;;;;;;13.55;99.74;101033.72;5993050;23;19911;-86
2021/09/11 04:27:02;;;;;;;;;;;;;;;13.55;100.00;101034.56;5993504;23;19954;-86
2021/09/11 04:29:27;;;;;;;;;;;;;;;13.55;99.80;101031.88;5992492;23;19910;-86
2021/09/11 04:31:53;;;;;;;;;;;;;;;13.54;99.94;101034.75;5993032;23;19910;-86
2021/09/11 04:34:18;;;;;;;;;;;;;;;13.55;99.97;101036.44;6015689;23;19976;-86
2021/09/11 04:36:44;;;;;;;;;;;;;;;13.54;99.78;101022.06;5994048;23;19905;-86
2021/09/11 04:39:09;;;;;;;;;;;;;;;13.55;99.81;101033.72;5994244;23;20238;-87
2021/09/11 04:41:34;;;;;;;;;;;;;;;13.54;99.59;101032.88;6039669;23;19965;-86
2021/09/11 04:44:00;;;;;;;;;;;;;;;13.53;99.34;101036.59;5993267;23;20295;-86
2021/09/11 04:46:25;;;;;;;;;;;;;;;13.50;99.37;101037.00;6043816;23;19906;-85
2021/09/11 04:48:51;;;;;;;;;;;;;;;13.50;99.37;101033.47;6018295;23;19920;-85
2021/09/11 04:51:16;;;;;;;;;;;;;;;13.47;99.41;101031.97;6018880;23;20406;-86
2021/09/11 04:53:42;;;;;;;;;;;;;;;13.41;99.43;101036.22;6043990;23;19909;-86
2021/09/11 04:56:07;;;;;;;;;;;;;;;13.40;99.30;101039.13;5997395;23;19906;-85
2021/09/11 04:58:33;;;;;;;;;;;;;;;13.38;99.59;101044.72;6023561;23;19965;-85
2021/09/11 05:00:58;;;;;;;;;;;;;;;13.39;99.69;101038.31;6000533;23;19905;-86
2021/09/11 05:03:24;;;;;;;;;;;;;;;13.38;99.33;101043.88;5997402;23;19928;-87
2021/09/11 05:05:52;;;;;;;;;;;;;;;13.36;99.48;101043.22;6018597;23;19991;-85
2021/09/11 05:08:17;;;;;;;;;;;;;;;13.35;99.68;101045.09;6018523;23;19915;-86
2021/09/11 05:10:44;;;;;;;;;;;;;;;13.36;99.63;101036.00;6018629;23;19905;-86
2021/09/11 05:13:09;;;;;;;;;;;;;;;13.35;99.58;101045.09;5996575;23;19906;-84
2021/09/11 05:15:34;;;;;;;;;;;;;;;13.35;99.57;101042.41;5995958;23;20228;-87
2021/09/11 05:18:00;;;;;;;;;;;;;;;13.32;99.60;101045.47;6018408;23;19988;-86
2021/09/11 05:20:26;;;;;;;;;;;;;;;13.30;99.71;101052.09;6018975;23;19905;-85
2021/09/11 05:22:52;;;;;;;;;;;;;;;13.30;99.66;101054.78;6018089;23;19992;-85
2021/09/11 05:25:17;;;;;;;;;;;;;;;13.33;99.97;101054.41;6016791;23;20685;-85
2021/09/11 05:27:43;;;;;;;;;;;;;;;13.33;99.99;101055.25;6018209;23;19972;-86
2021/09/11 05:30:08;;;;;;;;;;;;;;;13.33;99.82;101065.22;6017366;23;19940;-86
2021/09/11 05:32:34;;;;;;;;;;;;;;;13.34;99.67;101061.50;6016552;23;19905;-86
2021/09/11 05:34:59;;;;;;;;;;;;;;;13.33;99.41;101067.91;6015875;23;19909;-85
2021/09/11 05:37:25;;;;;;;;;;;;;;;13.33;99.89;101070.59;5992044;23;19928;-86
2021/09/11 05:39:50;;;;;;;;;;;;;;;13.34;99.79;101069.59;5992117;23;20391;-87
2021/09/11 05:42:17;;;;;;;;;;;;;;;13.35;99.65;101068.56;5993321;23;19905;-85
2021/09/11 05:44:42;;;;;;;;;;;;;;;13.37;99.61;101066.53;5992439;23;19996;-86
2021/09/11 05:47:08;;;;;;;;;;;;;;;13.38;99.86;101065.50;6015923;23;19944;-86
2021/09/11 05:49:33;;;;;;;;;;;;;;;13.36;99.89;101076.50;5991291;23;19984;-86
2021/09/11 05:52:00;;;;;;;;;;;;;;;13.35;99.85;101071.28;6016194;23;19905;-85
2021/09/11 05:54:25;;;;;;;;;;;;;;;13.36;99.79;101075.63;5994536;23;19909;-86
2021/09/11 05:56:51;;;;;;;;;;;;;;;13.36;99.62;101071.09;6017915;23;19928;-86
2021/09/11 05:59:16;;;;;;;;;;;;;;;13.37;99.65;101080.03;6019159;23;19936;-86
2021/09/11 06:01:42;;;;;;;;;;;;;;;13.38;99.56;101077.13;6017942;23;19906;-86
2021/09/11 06:04:07;;;;;;;;;;;;;;;13.38;99.55;101084.41;6018995;23;19906;-86
2021/09/11 06:06:33;;;;;;;;;;;;;;;13.41;99.63;101078.63;6017966;23;19984;-86
2021/09/11 06:08:58;;;;;;;;;;;;;;;13.43;99.36;101075.75;6016171;23;19912;-86
2021/09/11 06:11:24;;;;;;;;;;;;;;;13.43;99.12;101081.16;6017747;23;19909;-86
2021/09/11 06:13:49;;;;;;;;;;;;;;;13.42;99.27;101085.72;6015931;23;19918;-86
2021/09/11 06:16:14;;;;;;;;;;;;;;;13.41;99.46;101084.84;5992267;23;19905;-87
2021/09/11 06:18:41;;;;;;;;;;;;;;;13.42;99.39;101091.13;6041906;23;19909;-87
2021/09/11 06:21:07;;;;;;;;;;;;;;;13.41;99.51;101092.97;5994203;23;19951;-86
2021/09/11 06:23:32;;;;;;;;;;;;;;;13.41;99.55;101095.66;6017946;23;19914;-86
2021/09/11 06:25:58;;;;;;;;;;;;;;;13.42;99.68;101096.53;6017859;23;19905;-86
2021/09/11 06:28:24;;;;;;;;;;;;;;;13.45;99.42;101100.72;6041843;23;19910;-86
2021/09/11 06:30:50;;;;;;;;;;;;;;;13.45;99.27;101096.13;6042028;23;19906;-87
2021/09/11 06:33:15;;;;;;;;;;;;;;;13.45;99.34;101101.53;6018341;23;19912;-87
2021/09/11 06:35:41;;;;;;;;;;;;;;;13.46;99.47;101105.91;6017589;23;20184;-86
2021/09/11 06:38:06;;;;;;;;;;;;;;;13.47;99.64;101104.91;5994369;23;19913;-87
2021/09/11 06:40:32;;;;;;;;;;;;;;;13.50;99.52;101111.81;5991813;23;19928;-86
2021/09/11 06:42:57;;;;;;;;;;;;;;;13.54;99.42;101111.22;5992522;23;19933;-85
2021/09/11 17:26:26;;;;;;;;;;;;;;;18.31;72.60;101341.34;5095681;27;19924;-52
2021/09/11 17:28:52;;;;;;;;;;;;;;;19.40;69.28;101345.06;5076253;28;19970;-52
2021/09/11 17:33:16;;;;;;;;;;;;;;;21.06;65.33;101348.94;5102504;27;19923;-59
2021/09/11 17:35:41;;;;;;;;;;;;;;;21.52;63.62;101352.91;5078723;28;19970;-59
2021/09/11 17:38:07;;;;;;;;;;;;;;;21.82;62.99;101360.22;5080315;28;19920;-60
2021/09/11 17:40:34;;;;;;;;;;;;;;;22.04;61.81;101362.38;5076442;28;19928;-58
2021/09/11 17:43:00;;;;;;;;;;;;;;;22.22;61.27;101351.34;5079836;28;19920;-59
2021/09/11 17:45:25;;;;;;;;;;;;;;;22.35;60.69;101353.81;5077361;28;19920;-58
2021/09/11 17:47:51;;;;;;;;;;;;;;;22.47;60.29;101358.47;5082884;28;19919;-60
2021/09/11 17:50:16;;;;;;;;;;;;;;;22.57;60.08;101350.44;5078402;28;19917;-61
2021/09/11 17:52:43;;;;;;;;;;;;;;;22.64;59.85;101345.69;5075867;28;19924;-61
2021/09/11 17:55:09;;;;;;;;;;;;;;;22.71;59.94;101351.88;5078106;28;19916;-59
2021/09/11 17:57:35;;;;;;;;;;;;;;;22.76;59.78;101354.72;5076377;28;20276;-61
2021/09/11 18:00:00;;;;;;;;;;;;;;;22.81;59.50;101357.56;5081184;28;19912;-60
2021/09/11 18:02:26;;;;;;;;;;;;;;;22.85;59.22;101357.06;5080626;28;19916;-57
2021/09/11 18:04:51;;;;;;;;;;;;;;;22.87;59.17;101368.63;5078469;28;20286;-61
2021/09/11 18:07:17;;;;;;;;;;;;;;;22.91;58.94;101375.28;5081270;28;19920;-62
2021/09/11 18:09:42;;;;;;;;;;;;;;;22.93;58.98;101375.88;5076509;28;19927;-59
2021/09/11 18:12:08;;;;;;;;;;;;;;;22.96;58.79;101375.41;5079032;28;19973;-61
2021/09/11 18:14:33;;;;;;;;;;;;;;;22.97;58.59;101375.19;5081253;28;19922;-61
2021/09/11 18:16:59;;;;;;;;;;;;;;;22.98;58.58;101379.59;5077926;28;19924;-60
2021/09/11 18:19:25;;;;;;;;;;;;;;;22.99;58.62;101380.41;5078098;28;19912;-59
2021/09/11 18:21:50;;;;;;;;;;;;;;;23.00;58.17;101380.19;5080302;28;20295;-60
2021/09/11 18:24:16;;;;;;;;;;;;;;;23.00;58.29;101385.66;5083972;28;19913;-59
2021/09/11 18:26:41;;;;;;;;;;;;;;;23.02;58.03;101378.03;5081680;28;19977;-61
2021/09/11 18:29:10;;;;;;;;;;;;;;;23.03;57.94;101384.34;5077396;28;19921;-61
2021/09/11 18:31:35;;;;;;;;;;;;;;;23.03;58.07;101387.09;5080807;28;20007;-61
2021/09/11 18:34:01;;;;;;;;;;;;;;;23.03;57.95;101393.41;5082778;28;20027;-59
2021/09/11 18:36:26;;;;;;;;;;;;;;;23.03;57.68;101384.34;5077807;28;20478;-61
2021/09/11 18:38:52;;;;;;;;;;;;;;;23.04;57.85;101394.22;5082786;28;20321;-60
2021/09/11 18:41:18;;;;;;;;;;;;;;;23.04;57.87;101394.22;5077293;28;19959;-61
2021/09/11 18:43:44;;;;;;;;;;;;;;;23.04;57.81;101396.97;5070604;28;20655;-60
2021/09/11 18:46:09;;;;;;;;;;;;;;;23.03;57.86;101403.56;5066824;28;19972;-61
2021/09/11 18:48:35;;;;;;;;;;;;;;;23.03;57.85;101401.63;5059936;28;19916;-61
2021/09/11 18:51:01;;;;;;;;;;;;;;;23.03;57.61;101406.28;5062148;28;19917;-60
2021/09/11 18:53:27;;;;;;;;;;;;;;;23.03;57.67;101406.28;5063625;28;19922;-60
2021/09/11 18:55:53;;;;;;;;;;;;;;;23.02;57.73;101399.97;5064646;28;19929;-59
2021/09/11 18:58:18;;;;;;;;;;;;;;;23.02;57.74;101397.25;5063663;28;20617;-59
2021/09/11 19:00:44;;;;;;;;;;;;;;;23.02;57.72;101399.13;5059813;28;19992;-57
2021/09/11 19:03:09;;;;;;;;;;;;;;;23.01;57.80;101401.03;5062604;28;19921;-58
2021/09/11 19:05:35;;;;;;;;;;;;;;;23.01;57.60;101408.44;5064002;28;20066;-57
2021/09/11 19:08:02;;;;;;;;;;;;;;;23.01;57.76;101405.69;5061482;28;20010;-59
2021/09/11 19:10:27;;;;;;;;;;;;;;;23.01;57.82;101405.69;5063639;28;19974;-58
2021/09/11 19:12:53;;;;;;;;;;;;;;;23.01;57.76;101405.69;5055484;28;19925;-58
2021/09/11 19:15:19;;;;;;;;;;;;;;;23.00;57.74;101404.88;5069221;28;19916;-60
2021/09/11 19:17:45;;;;;;;;;;;;;;;23.00;57.90;101399.38;5058488;28;20308;-61
2021/09/11 19:20:11;;;;;;;;;;;;;;;23.00;57.96;101393.91;5064430;28;20030;-60
2021/09/11 19:22:36;;;;;;;;;;;;;;;23.00;58.13;101399.38;5066297;28;20016;-60
2021/09/11 19:25:02;;;;;;;;;;;;;;;23.00;58.10;101399.38;5068915;28;19962;-58
2021/09/11 19:27:27;;;;;;;;;;;;;;;23.00;58.29;101395.81;5058039;28;19959;-59
2021/09/11 19:29:53;;;;;;;;;;;;;;;23.00;58.48;101398.56;5065293;28;20360;-61
2021/09/11 19:32:18;;;;;;;;;;;;;;;23.00;58.44;101404.88;5061216;28;19982;-61
2021/09/11 19:34:44;;;;;;;;;;;;;;;23.00;58.36;101398.56;5067715;28;19916;-60
2021/09/11 19:37:11;;;;;;;;;;;;;;;22.99;58.29;101402.34;5063036;28;19920;-60
2021/09/11 19:39:36;;;;;;;;;;;;;;;23.00;58.32;101406.78;5052598;28;19948;-60
2021/09/11 19:42:04;;;;;;;10.25;2.75;;;;;;;23.03;58.88;101411.78;5060013;28;20420;-61
2021/09/11 19:44:30;;;;;;;5.90;2.78;;;;;;;23.04;58.61;101416.19;5056119;28;20550;-62
2021/09/11 19:46:56;;;;;;;6.15;2.08;;;;;;;23.05;58.73;101417.88;5063320;28;20025;-62
2021/09/11 19:49:22;;;;;;;10.75;2.30;;;;;;;23.06;58.61;101427.75;5065929;28;20035;-62
2021/09/11 19:51:47;;;;;;;11.10;2.70;;;;;;;23.07;58.44;101431.31;5059677;28;20064;-62
2021/09/11 19:54:14;;;;;;;10.43;2.33;;;;;;;23.08;58.64;101439.31;5060910;28;20043;-61
2021/09/11 19:56:40;;;;;;;9.82;2.80;;;;;;;23.09;58.35;101449.19;5060917;28;20039;-61
2021/09/11 19:59:06;;;;;;;15.13;2.55;;;;;;;23.10;58.51;101441.81;5064371;28;20024;-63
2021/09/11 20:01:32;;;;;;;6.15;3.47;;;;;;;23.11;58.42;101441.56;5060793;28;20106;-60
2021/09/11 20:03:58;;;;;;;6.30;2.67;;;;;;;23.10;58.51;101439.91;5058864;28;20031;-61
2021/09/11 20:06:23;;;;;;;6.90;2.83;;;;;;;23.10;58.40;101444.53;5066248;28;20024;-62
2021/09/11 20:08:49;;;;;;;10.23;2.72;;;;;;;23.10;58.47;101448.16;5055527;28;20025;-59
2021/09/11 20:11:14;;;;;;;9.80;2.78;;;;;;;23.11;58.28;101446.22;5064671;28;20020;-58
2021/09/11 20:13:40;;;;;;;9.98;3.55;;;;;;;23.12;58.42;101440.47;5057970;28;20025;-56
2021/09/11 20:16:06;;;;;;;6.07;3.10;;;;;;;23.11;58.41;101441.56;5058266;28;20036;-60
2021/09/11 20:18:31;;;;;;;6.85;3.30;;;;;;;23.12;58.22;101447.88;5064228;28;20082;-60
2021/09/11 20:20:57;;;;;;;9.52;3.42;;;;;;;23.12;57.98;101442.41;5064314;28;20054;-55
2021/09/11 20:23:23;;;;;;;8.18;3.17;;;;;;;23.12;58.22;101447.88;5058445;28;20032;-61
2021/09/11 20:25:48;;;;;;;20.58;5.95;;;;;;;23.12;58.30;101448.72;5060589;28;20114;-57
2021/09/11 20:28:15;;;;;;;11.68;3.72;;;;;;;23.12;58.01;101451.44;5062657;28;20025;-57
2021/09/11 20:30:40;;;;;;;9.48;3.28;;;;;;;23.12;58.06;101451.44;5064300;28;20039;-58
2021/09/11 20:33:06;;;;;;;8.50;3.88;;;;;;;23.12;57.84;101445.97;5065816;28;20058;-58
2021/09/11 20:35:32;;;;;;;27.00;4.25;;;;;;;23.13;57.87;101446.78;5062260;28;20032;-58
2021/09/11 20:37:57;;;;;;;14.65;3.70;;;;;;;23.12;57.89;101451.44;5060789;28;20427;-57
2021/09/11 20:40:23;;;;;;;12.88;4.47;;;;;;;23.11;57.96;101447.06;5060396;28;20398;-58
2021/09/11 20:42:48;;;;;;;7.75;3.60;;;;;;;23.11;57.61;101447.06;5055859;28;20028;-55
2021/09/11 20:45:14;;;;;;;13.77;3.65;;;;;;;23.12;57.61;101456.94;5065188;28;20031;-57
2021/09/11 20:47:40;;;;;;;11.35;3.58;;;;;;;23.12;57.86;101465.16;5063182;28;20601;-57
2021/09/11 20:50:06;;;;;;;12.68;3.55;;;;;;;23.12;57.57;101462.44;5060753;28;20032;-57
2021/09/11 20:52:32;;;;;;;13.98;3.38;;;;;;;23.12;57.62;101467.09;5063050;28;20548;-59
2021/09/11 20:54:58;;;;;;;9.65;3.58;;;;;;;23.12;57.80;101462.44;5057196;28;20024;-59
2021/09/11 20:57:24;;;;;;;8.55;3.03;;;;;;;23.13;57.57;101466.00;5062426;28;20040;-57
2021/09/11 20:59:50;;;;;;;6.50;3.00;;;;;;;23.11;57.58;101460.78;5060380;28;20530;-59
2021/09/11 21:02:16;;;;;;;7.97;3.42;;;;;;;23.12;57.61;101467.09;5060450;28;20029;-58
2021/09/11 21:04:43;;;;;;;6.88;4.07;;;;;;;23.11;57.61;101465.44;5064043;28;20451;-58
2021/09/11 21:07:08;;;;;;;12.27;4.03;;;;;;;23.10;57.53;101470.09;5061545;28;20123;-58
2021/09/11 21:09:35;;;;;;;9.38;4.05;;;;;;;23.10;57.61;101472.84;5063332;28;20498;-59
2021/09/11 21:12:01;;;;;;;7.10;4.15;;;;;;;23.10;57.61;101475.56;5058693;28;20024;-58
2021/09/11 21:14:27;;;;;;;10.15;4.38;;;;;;;23.10;57.54;101470.09;5060762;28;20032;-59
2021/09/11 21:16:52;;;;;;;8.23;5.03;;;;;;;23.09;57.54;101470.31;5056811;28;20442;-58
2021/09/11 21:19:18;;;;;;;8.02;4.50;;;;;;;23.10;57.61;101477.47;5055256;28;20071;-58
2021/09/11 21:21:44;;;;;;;9.27;4.93;;;;;;;23.09;57.57;101471.16;5049672;28;20056;-57
2021/09/11 21:24:11;;;;;;;11.15;4.40;;;;;;;23.09;57.47;101468.41;5063900;28;20039;-57
2021/09/11 21:26:37;;;;;;;5.57;4.00;;;;;;;23.09;57.94;101470.31;5056267;28;20035;-58
2021/09/11 21:29:03;;;;;;;8.88;4.15;;;;;;;23.09;57.85;101464.84;5063185;28;20099;-57
2021/09/11 21:31:29;;;;;;;9.25;3.95;;;;;;;23.08;57.72;101469.50;5063251;28;20494;-59
2021/09/11 21:33:54;;;;;;;7.85;4.20;;;;;;;23.07;57.54;101465.06;5061487;28;20524;-60
2021/09/11 21:36:20;;;;;;;9.10;3.90;;;;;;;23.07;57.58;101476.03;5060416;28;20024;-58
2021/09/11 21:38:46;;;;;;;6.85;3.45;;;;;;;23.06;57.36;101479.88;5063892;28;20028;-60
2021/09/11 21:41:13;;;;;;;7.47;3.28;;;;;;;23.07;57.28;101480.69;5062685;28;21219;-60
2021/09/11 21:43:40;;;;;;;5.85;3.90;;;;;;;23.06;57.51;101479.88;5056819;28;20041;-58
2021/09/11 21:46:06;;;;;;;4.47;3.55;;;;;;;23.06;57.28;101482.59;5064205;28;20036;-57
2021/09/11 21:48:32;;;;;;;5.85;3.40;;;;;;;23.07;57.48;101480.69;5055797;28;20384;-56
2021/09/11 21:50:58;;;;;;;9.25;3.58;;;;;;;23.06;57.26;101479.88;5058420;28;20016;-58
2021/09/11 21:53:24;;;;;;;5.43;3.10;;;;;;;23.05;57.29;101480.94;5061346;28;20032;-56
2021/09/11 21:55:50;;;;;;;5.07;3.33;;;;;;;23.04;57.64;101482.00;5070913;28;20115;-58
2021/09/11 21:58:15;;;;;;;5.93;3.25;;;;;;;23.06;57.53;101479.03;5056969;28;20476;-57
2021/09/11 22:00:48;;;;;;;4.85;2.80;;;;;;;23.03;57.45;101469.38;5055243;28;20574;-56
2021/09/11 22:03:14;;;;;;;4.68;3.30;;;;;;;23.03;57.35;101477.59;5059221;28;20025;-60
2021/09/11 22:05:39;;;;;;;5.25;2.92;;;;;;;23.06;57.34;101490.00;5064845;28;20029;-60
2021/09/11 22:08:05;;;;;;;6.35;3.05;;;;;;;23.04;57.26;101502.03;5061554;28;20059;-56
2021/09/11 22:10:31;;;;;;;5.00;2.85;;;;;;;23.03;57.35;101497.63;5061646;28;20034;-57
2021/09/11 22:12:57;;;;;;;5.65;3.20;;;;;;;23.03;57.38;101503.13;5059740;28;20048;-57
2021/09/11 22:15:23;;;;;;;5.65;3.10;;;;;;;23.03;57.31;101497.63;5051925;28;20029;-57
2021/09/11 22:17:48;;;;;;;6.75;3.33;;;;;;;22.98;56.89;101494.78;5063238;28;20025;-60
2021/09/11 22:20:14;;;;;;;3.67;2.80;;;;;;;23.03;56.92;101502.28;5065883;28;20049;-58
2021/09/11 22:22:50;;;;;;;7.57;3.20;;;;;;;23.03;56.96;101500.38;5061468;28;20020;-59
2021/09/11 22:25:15;;;;;;;4.05;3.00;;;;;;;23.04;56.90;101492.97;5060350;28;20074;-58
2021/09/11 22:27:41;;;;;;;6.50;3.28;;;;;;;23.03;57.11;101491.31;5065064;28;20118;-57
2021/09/11 22:30:08;;;;;;;4.40;3.08;;;;;;;23.02;57.07;101489.63;5062346;28;20035;-60
2021/09/11 22:32:34;;;;;;;4.45;3.17;;;;;;;23.03;56.99;101499.56;5059085;28;20031;-59
2021/09/11 22:35:00;;;;;;;5.78;2.92;;;;;;;23.03;57.01;101499.56;5059217;28;20040;-57
2021/09/11 22:37:25;;;;;;;5.05;2.90;;;;;;;23.02;57.02;101501.47;5063150;28;20039;-55
2021/09/11 22:39:51;;;;;;;7.13;3.45;;;;;;;23.02;56.95;101506.94;5060392;28;20481;-58
2021/09/11 22:42:17;;;;;;;6.22;3.10;;;;;;;23.02;57.31;101506.94;5058543;28;20081;-59
2021/09/11 22:44:42;;;;;;;5.53;3.22;;;;;;;23.01;57.48;101493.47;5053547;28;20424;-59
2021/09/11 22:47:08;;;;;;;6.75;2.97;;;;;;;23.01;57.22;101498.94;5055324;28;20039;-58
2021/09/11 22:49:34;;;;;;;5.22;2.80;;;;;;;23.01;57.20;101496.22;5059455;28;20025;-57
2021/09/11 22:51:59;;;;;;;4.35;2.60;;;;;;;23.00;57.09;101495.38;5058657;28;20063;-58